Grand Lake, CO

12:24 AM MST on November 23, 2014 (GMT -0700)
MesoWest LAKE IRENE CO US SNOTEL | Change Station
CLOSE
Current Station
Personal Weather Station
Location: Grand Lake, CO
Elevation: 10700 ft
Nearby Weather Stations
Active Advisory: Winter Weather Advisory Active Notice: Public Information Statement

Elev 10700 ft 40.41 °N, 105.82 °W | Updated 38 days ago

Snow
Snow
25 °F
Feels Like 13 °F
N
17
Wind Variable Wind from West
Gusts 31 mph

Today
High -- | Low -- °F
--% Chance of Precip.
Yesterday
High -- | Low -- °F
Precip. -- in
6:58 AM 4:40 PM
New Moon, 1% visible
Pressure 29.76 in
Visibility 7.0 miles
Clouds Scattered Clouds 1400 ft
Mostly Cloudy 3300 ft
Overcast 5500 ft
Windchill 13 °F
Dew Point 17 °F
Humidity 70%
Rainfall -9999.00 in
Snow Depth Not available.
UV 0 out of 12
Pollen .10 out of 12
Air Quality Not available.
Flu Activity Not available.
METAR K20V 230715Z AUTO 01005KT 7SM SCT014 BKN033 OVC055 00/M03 A2976 RMK AO2

More Conditions Fewer Conditions

Pressure 29.76 in
Visibility 7.0 miles
Clouds Scattered Clouds 1400 ft
Mostly Cloudy 3300 ft
Overcast 5500 ft
Windchill 13 °F
Dew Point 17 °F
Humidity 70%
Rainfall -9999.00 in
Snow Depth Not available.
UV 0 out of 12
Pollen .10 out of 12
Air Quality Not available.
Flu Activity Not available.
METAR K20V 230715Z AUTO 01005KT 7SM SCT014 BKN033 OVC055 00/M03 A2976 RMK AO2

More Conditions Fewer Conditions

Nowcast | as of 9:41 PM MST on November 22, 2014

Scattered to numerous snow showers will continue over the north central mountains through midnight. The activity will be most numerous along and near the Continental Divide and along and south of the Interstate 70 corridor. Snowfall rates will generally be less than one quarter inch per hour...with rates up to one half inch per hour with the heavier showers. West winds at 15 to 25 mph with gusts up to 45 mph will continue over the High Mountain passes. The winds will producing areas of blowing snow in windy areas.

×

10-Day Weather Forecast

Almanac

Astronomy

Nov. 23, 2014 Rise Set
Actual Time
Civil Twilight
Nautical Twilight
Astronomical Twilight
Moon
Length of Visible Light
Length of Day
Tomorrow will be .
, % of the Moon is Illuminated

Today's Extremes

State Highs State Lows

Community

WunderPhotos

Upload Photos

1,773,024 photos uploaded!

WunderBlogs® & News

Nearby

Air Quality

  Air Quality AQ Index Pollutant
Not available.

Snow Depth

Station Depth Elevation

Earthquake Activity

City Distance Mag. Time & Date
Minimum magnitude displayed is 2.5.

Coastal Water Temperatures

Place Temperature

Nearby Weather Stations